createdAt,value
2019-04-21T00:00:45.751Z,98.30
2019-04-21T00:03:21.432Z,96.70
2019-04-21T00:06:26.975Z,95.90
2019-04-21T00:08:56.526Z,96.10
2019-04-21T00:13:39.633Z,98.70
2019-04-21T00:16:00.255Z,99.60
2019-04-21T00:18:54.872Z,99.50
2019-04-21T00:21:31.528Z,99.50
2019-04-21T00:24:24.288Z,99.90
2019-04-21T00:27:06.984Z,99.90
2019-04-21T00:29:40.937Z,98.40
2019-04-21T00:32:02.917Z,99.20
2019-04-21T00:34:19.600Z,97.40
2019-04-21T00:37:00.787Z,96.10
2019-04-21T00:39:49.593Z,96.10
2019-04-21T00:42:14.097Z,96.80
2019-04-21T00:44:36.660Z,94.10
2019-04-21T00:47:21.192Z,93.80
2019-04-21T00:49:55.401Z,96.00
2019-04-21T00:52:49.172Z,93.30
2019-04-21T00:55:21.820Z,91.10
2019-04-21T00:57:48.175Z,92.30
2019-04-21T01:00:17.712Z,93.20
2019-04-21T01:02:49.877Z,93.40
2019-04-21T01:05:35.241Z,93.60
2019-04-21T01:07:46.903Z,95.10
2019-04-21T01:10:16.236Z,88.20
2019-04-21T01:12:58.989Z,89.10
2019-04-21T01:15:30.907Z,90.00
2019-04-21T01:17:59.370Z,86.70
2019-04-21T01:20:16.986Z,86.70
2019-04-21T01:22:41.316Z,88.70
2019-04-21T01:25:20.409Z,86.50
2019-04-21T01:27:59.449Z,89.00
2019-04-21T01:30:34.642Z,89.70
2019-04-21T01:33:07.770Z,91.00
2019-04-21T01:35:40.279Z,91.20
2019-04-21T01:38:19.193Z,91.70
2019-04-21T01:40:50.513Z,92.10
2019-04-21T01:43:17.547Z,91.90
2019-04-21T01:45:49.108Z,92.10
2019-04-21T01:48:21.815Z,92.00
2019-04-21T01:50:51.263Z,92.10
2019-04-21T01:53:51.283Z,92.00
2019-04-21T01:56:43.176Z,93.40
2019-04-21T01:59:02.729Z,93.30
2019-04-21T02:01:46.100Z,93.50
2019-04-21T02:04:24.124Z,93.70
2019-04-21T02:06:55.423Z,95.50
2019-04-21T02:09:22.927Z,96.70
2019-04-21T02:11:55.074Z,97.50
2019-04-21T02:14:33.285Z,96.00
2019-04-21T02:16:59.309Z,96.10
2019-04-21T02:19:24.214Z,97.00
2019-04-21T02:21:55.297Z,96.70
2019-04-21T02:24:42.364Z,97.90
2019-04-21T02:27:07.082Z,99.90
2019-04-21T02:29:40.659Z,99.90
2019-04-21T02:32:33.415Z,99.90
2019-04-21T02:35:14.607Z,99.90
2019-04-21T02:37:38.469Z,99.90
2019-04-21T02:42:32.851Z,99.90
2019-04-21T02:45:03.872Z,99.90
2019-04-21T02:47:48.413Z,99.90
2019-04-21T02:52:50.088Z,99.90
2019-04-21T02:55:22.085Z,99.90
2019-04-21T02:57:45.504Z,99.90
2019-04-21T03:00:25.213Z,99.90
2019-04-21T03:06:15.387Z,99.90
2019-04-21T03:08:44.781Z,99.90
2019-04-21T03:13:44.724Z,99.90
2019-04-21T03:16:21.471Z,99.90
2019-04-21T03:18:48.199Z,99.90
2019-04-21T03:29:17.580Z,99.90
2019-04-21T03:36:52.779Z,99.90
2019-04-21T03:39:01.230Z,99.90
2019-04-21T03:41:48.452Z,99.90
2019-04-21T03:44:26.737Z,99.90
2019-04-21T03:46:47.280Z,99.90
2019-04-21T03:49:28.964Z,99.90
2019-04-21T03:51:56.799Z,99.90
2019-04-21T03:54:25.261Z,99.90
2019-04-21T03:57:10.984Z,99.90
2019-04-21T03:59:25.033Z,99.90
2019-04-21T04:02:16.577Z,99.90
2019-04-21T04:05:08.935Z,99.90
2019-04-21T04:08:03.890Z,99.90
2019-04-21T04:13:04.918Z,99.90
2019-04-21T04:15:38.522Z,99.90
2019-04-21T04:18:04.126Z,99.10
2019-04-21T04:20:35.600Z,99.90
2019-04-21T04:23:10.356Z,99.90
2019-04-21T04:25:43.365Z,99.90
2019-04-21T04:28:25.677Z,97.50
2019-04-21T04:30:47.626Z,99.70
2019-04-21T04:33:27.969Z,97.50
2019-04-21T04:43:47.613Z,97.70
2019-04-21T04:46:06.793Z,96.80
2019-04-21T04:48:49.101Z,96.90
2019-04-21T04:51:25.279Z,98.00
2019-04-21T04:53:47.248Z,97.70
2019-04-21T04:56:18.335Z,99.90
2019-04-21T04:59:23.081Z,99.00
2019-04-21T05:01:34.849Z,95.00
2019-04-21T05:04:02.651Z,95.90
2019-04-21T05:09:15.300Z,97.30
2019-04-21T05:14:07.587Z,94.80
2019-04-21T05:24:00.061Z,95.40
2019-04-21T05:26:36.279Z,96.30
2019-04-21T05:29:01.805Z,95.20
2019-04-21T05:32:00.496Z,93.50
2019-04-21T05:34:30.590Z,90.20
2019-04-21T05:37:24.687Z,90.50
2019-04-21T05:39:55.903Z,89.50
2019-04-21T05:42:29.196Z,84.80
2019-04-21T05:45:24.176Z,83.20
2019-04-21T05:48:13.444Z,80.20
2019-04-21T05:50:32.095Z,83.20
2019-04-21T05:53:08.248Z,85.20
2019-04-21T05:55:47.001Z,86.60
2019-04-21T05:58:30.125Z,87.60
2019-04-21T06:01:22.157Z,85.20
2019-04-21T06:03:42.768Z,85.50
2019-04-21T06:06:10.058Z,81.10
2019-04-21T06:08:31.868Z,81.00
2019-04-21T06:11:10.427Z,80.00
2019-04-21T06:13:43.932Z,79.60
2019-04-21T06:16:07.502Z,78.50
2019-04-21T06:18:48.564Z,74.40
2019-04-21T06:21:31.390Z,71.50
2019-04-21T06:23:47.909Z,72.80
2019-04-21T06:26:45.614Z,72.30
2019-04-21T06:28:51.840Z,70.80
2019-04-21T06:31:43.724Z,68.40
2019-04-21T06:34:08.159Z,70.10
2019-04-21T06:36:47.447Z,70.20
2019-04-21T06:39:19.604Z,64.30
2019-04-21T06:41:46.797Z,64.90
2019-04-21T06:44:24.056Z,61.70
2019-04-21T06:46:49.055Z,61.30
2019-04-21T06:49:27.473Z,59.80
2019-04-21T06:51:54.584Z,53.40
2019-04-21T06:54:38.361Z,54.50
2019-04-21T06:56:56.682Z,51.90
2019-04-21T06:59:31.980Z,52.40
2019-04-21T07:02:24.860Z,48.40
2019-04-21T07:07:05.359Z,48.70
2019-04-21T07:09:52.755Z,47.30
2019-04-21T07:12:13.699Z,49.10
2019-04-21T07:14:44.069Z,47.30
2019-04-21T07:17:24.222Z,46.10
2019-04-21T07:19:57.213Z,45.50
2019-04-21T07:22:24.471Z,45.20
2019-04-21T07:24:58.948Z,46.10
2019-04-21T07:27:30.337Z,43.20
2019-04-21T07:29:58.185Z,41.70
2019-04-21T07:32:33.472Z,41.80
2019-04-21T07:35:11.785Z,40.00
2019-04-21T07:37:35.289Z,37.80
2019-04-21T07:40:07.880Z,33.80
2019-04-21T07:42:35.887Z,33.20
2019-04-21T07:45:02.380Z,30.30
2019-04-21T07:47:55.335Z,27.90
2019-04-21T07:51:00.604Z,25.50
2019-04-21T07:53:52.650Z,25.40
2019-04-21T07:55:59.658Z,25.30
2019-04-21T07:58:54.173Z,26.90
2019-04-21T08:03:51.972Z,26.10
2019-04-21T08:09:13.633Z,28.50
2019-04-21T08:11:44.348Z,28.30
2019-04-21T08:14:24.013Z,26.80
2019-04-21T08:19:26.237Z,28.20
2019-04-21T08:22:03.702Z,28.20
2019-04-21T08:24:28.546Z,28.30
2019-04-21T08:27:05.300Z,28.40
2019-04-21T08:29:35.004Z,28.50
2019-04-21T08:34:49.622Z,28.90
2019-04-21T08:37:16.064Z,26.70
2019-04-21T08:39:50.379Z,25.70
2019-04-21T08:42:15.524Z,27.20
2019-04-21T08:44:49.286Z,25.30
2019-04-21T08:47:18.385Z,24.90
2019-04-21T08:49:49.045Z,25.20
2019-04-21T08:52:37.046Z,26.80
2019-04-21T08:55:03.346Z,27.10
2019-04-21T08:58:04.753Z,25.00
2019-04-21T09:00:38.913Z,25.40
2019-04-21T09:03:17.887Z,25.40
2019-04-21T09:05:53.980Z,24.30
2019-04-21T09:08:21.679Z,25.00
2019-04-21T09:10:55.936Z,25.40
2019-04-21T09:13:24.775Z,25.00
2019-04-21T09:15:52.350Z,25.40
2019-04-21T09:18:25.419Z,25.10
2019-04-21T09:20:59.927Z,26.50
2019-04-21T09:23:33.569Z,24.90
2019-04-21T09:26:05.490Z,22.50
2019-04-21T09:28:32.950Z,22.40
2019-04-21T09:30:53.517Z,23.50
2019-04-21T09:33:28.043Z,21.30
2019-04-21T09:35:58.861Z,21.30
2019-04-21T09:38:33.851Z,22.30
2019-04-21T09:40:59.646Z,19.40
2019-04-21T09:43:38.370Z,21.30
2019-04-21T09:46:03.982Z,20.50
2019-04-21T09:48:49.144Z,21.90
2019-04-21T09:51:06.562Z,20.30
2019-04-21T09:53:41.103Z,19.20
2019-04-21T09:56:14.830Z,20.50
2019-04-21T09:58:46.861Z,20.80
2019-04-21T10:01:22.742Z,19.50
2019-04-21T10:03:48.713Z,19.50
2019-04-21T10:06:19.559Z,19.50
2019-04-21T10:08:57.508Z,19.40
2019-04-21T10:11:22.647Z,19.40
2019-04-21T10:13:52.999Z,18.50
2019-04-21T10:16:49.526Z,21.20
2019-04-21T10:19:20.991Z,17.20
2019-04-21T10:21:52.070Z,18.80
2019-04-21T10:24:24.483Z,16.10
2019-04-21T10:26:55.468Z,16.20
2019-04-21T10:29:29.484Z,17.20
2019-04-21T10:31:59.579Z,17.00
2019-04-21T10:34:31.413Z,15.10
2019-04-21T10:37:02.865Z,15.50
2019-04-21T10:39:33.832Z,13.70
2019-04-21T10:42:05.578Z,14.60
2019-04-21T10:44:36.876Z,15.40
2019-04-21T10:47:08.719Z,13.00
2019-04-21T10:49:40.294Z,14.90
2019-04-21T10:52:17.449Z,14.50
2019-04-21T10:55:10.088Z,15.10
2019-04-21T10:57:24.516Z,14.40
2019-04-21T10:59:56.493Z,15.90
2019-04-21T11:02:32.940Z,13.90
2019-04-21T11:05:03.157Z,13.40
2019-04-21T11:08:01.234Z,13.20
2019-04-21T11:10:22.300Z,13.60
2019-04-21T11:12:52.787Z,13.50
2019-04-21T11:15:23.372Z,14.40
2019-04-21T11:17:54.500Z,14.20
2019-04-21T11:20:26.899Z,13.40
2019-04-21T11:22:57.714Z,14.50
2019-04-21T11:25:28.232Z,15.50
2019-04-21T11:27:58.912Z,15.30
2019-04-21T11:30:29.811Z,15.30
2019-04-21T11:33:01.423Z,16.40
2019-04-21T11:35:32.977Z,14.40
2019-04-21T11:38:15.273Z,13.50
2019-04-21T11:40:39.729Z,14.00
2019-04-21T11:43:11.510Z,12.50
2019-04-21T11:45:42.240Z,13.50
2019-04-21T11:48:22.499Z,15.50
2019-04-21T11:50:53.379Z,13.20
2019-04-21T11:53:25.118Z,12.80
2019-04-21T11:55:56.894Z,13.90
2019-04-21T11:58:28.262Z,13.50
2019-04-21T12:01:00.120Z,13.80
2019-04-21T12:03:31.686Z,12.70
2019-04-21T12:06:03.533Z,14.90
2019-04-21T12:08:40.443Z,13.40
2019-04-21T12:11:07.852Z,14.30
2019-04-21T12:13:38.237Z,13.50
2019-04-21T12:16:10.610Z,13.60
2019-04-21T12:18:41.049Z,14.50
2019-04-21T12:21:11.691Z,12.70
2019-04-21T12:23:42.751Z,12.20
2019-04-21T12:26:14.051Z,13.70
2019-04-21T12:28:45.877Z,14.50
2019-04-21T12:31:41.865Z,14.50
2019-04-21T12:34:14.085Z,12.50
2019-04-21T12:36:44.941Z,10.70
2019-04-21T12:39:16.760Z,13.70
2019-04-21T12:41:48.736Z,11.40
2019-04-21T12:44:20.182Z,11.00
2019-04-21T12:46:54.015Z,12.30
2019-04-21T12:49:25.603Z,13.10
2019-04-21T12:51:57.691Z,16.20
2019-04-21T12:54:28.093Z,18.30
2019-04-21T12:56:59.205Z,16.30
2019-04-21T12:59:32.136Z,14.30
2019-04-21T13:02:01.445Z,14.50
2019-04-21T13:04:31.754Z,17.40
2019-04-21T13:07:03.578Z,18.20
2019-04-21T13:09:35.696Z,18.20
2019-04-21T13:12:06.936Z,17.20
2019-04-21T13:14:37.933Z,19.50
2019-04-21T13:17:09.727Z,20.20
2019-04-21T13:19:41.225Z,20.80
2019-04-21T13:22:12.243Z,19.90
2019-04-21T13:24:42.619Z,21.20
2019-04-21T13:27:13.251Z,21.50
2019-04-21T13:29:44.071Z,22.00
2019-04-21T13:32:14.598Z,20.60
2019-04-21T13:34:46.081Z,21.70
2019-04-21T13:37:19.361Z,20.40
2019-04-21T13:40:38.798Z,20.60
2019-04-21T13:42:53.184Z,20.40
2019-04-21T13:45:21.758Z,21.00
2019-04-21T13:47:52.674Z,21.70
2019-04-21T13:50:23.658Z,18.60
2019-04-21T13:52:54.472Z,21.40
2019-04-21T13:55:25.663Z,21.60
2019-04-21T13:57:56.780Z,21.90
2019-04-21T14:00:27.620Z,22.30
2019-04-21T14:02:58.730Z,19.00
2019-04-21T14:05:30.544Z,21.10
2019-04-21T14:08:03.021Z,23.30
2019-04-21T14:10:33.593Z,22.90
2019-04-21T14:13:04.660Z,21.50
2019-04-21T14:15:35.808Z,21.20
2019-04-21T14:18:06.915Z,21.60
2019-04-21T14:20:37.491Z,23.40
2019-04-21T14:23:15.707Z,23.10
2019-04-21T14:25:40.166Z,22.00
2019-04-21T14:28:10.429Z,21.20
2019-04-21T14:30:40.780Z,21.00
2019-04-21T14:33:12.070Z,21.20
2019-04-21T14:35:43.064Z,21.30
2019-04-21T14:38:14.395Z,21.00
2019-04-21T14:40:46.177Z,21.30
2019-04-21T14:43:16.655Z,21.10
2019-04-21T14:46:09.198Z,21.40
2019-04-21T14:49:11.030Z,20.90
2019-04-21T14:51:49.408Z,21.30
2019-04-21T14:54:40.822Z,21.20
2019-04-21T14:57:11.520Z,21.50
2019-04-21T14:59:42.842Z,19.80
2019-04-21T15:02:14.076Z,19.30
2019-04-21T15:04:45.837Z,19.70
2019-04-21T15:07:17.104Z,19.10
2019-04-21T15:09:59.662Z,19.90
2019-04-21T15:12:20.251Z,18.70
2019-04-21T15:14:51.818Z,19.90
2019-04-21T15:17:22.997Z,18.70
2019-04-21T15:19:59.655Z,19.80
2019-04-21T15:22:28.221Z,19.20
2019-04-21T15:24:58.658Z,19.30
2019-04-21T15:27:28.972Z,19.30
2019-04-21T15:30:00.463Z,20.40
2019-04-21T15:32:30.984Z,18.40
2019-04-21T15:35:02.312Z,20.00
2019-04-21T15:37:33.881Z,20.00
2019-04-21T15:40:17.333Z,20.00
2019-04-21T15:42:36.924Z,19.60
2019-04-21T15:45:10.445Z,20.00
2019-04-21T15:47:42.070Z,18.20
2019-04-21T15:50:17.342Z,19.60
2019-04-21T15:52:45.908Z,19.50
2019-04-21T15:55:44.530Z,19.80
2019-04-21T15:58:40.834Z,18.80
2019-04-21T16:01:28.615Z,18.60
2019-04-21T16:04:00.567Z,19.60
2019-04-21T16:06:31.898Z,18.50
2019-04-21T16:09:04.678Z,18.10
2019-04-21T16:11:35.739Z,18.20
2019-04-21T16:14:07.947Z,18.20
2019-04-21T16:16:39.221Z,19.10
2019-04-21T16:19:10.092Z,19.50
2019-04-21T16:21:42.860Z,19.50
2019-04-21T16:24:12.499Z,19.40
2019-04-21T16:26:44.308Z,20.10
2019-04-21T16:29:15.382Z,19.30
2019-04-21T16:31:46.987Z,20.40
2019-04-21T16:34:18.104Z,20.20
2019-04-21T16:36:49.739Z,20.60
2019-04-21T16:39:20.054Z,20.40
2019-04-21T16:41:51.943Z,20.90
2019-04-21T16:44:23.108Z,21.50
2019-04-21T16:46:53.930Z,21.90
2019-04-21T16:49:25.427Z,22.40
2019-04-21T16:52:16.255Z,23.10
2019-04-21T16:54:49.695Z,23.20
2019-04-21T16:57:41.910Z,23.80
2019-04-21T17:00:28.949Z,24.50
2019-04-21T17:02:50.498Z,24.20
2019-04-21T17:05:22.418Z,24.50
2019-04-21T17:07:53.062Z,22.40
2019-04-21T17:10:24.560Z,23.10
2019-04-21T17:12:56.026Z,23.30
2019-04-21T17:15:42.598Z,24.10
2019-04-21T17:18:17.922Z,24.10
2019-04-21T17:20:41.207Z,24.50
2019-04-21T17:23:03.914Z,24.20
2019-04-21T17:25:34.522Z,23.40
2019-04-21T17:28:05.965Z,24.20
2019-04-21T17:30:36.774Z,22.80
2019-04-21T17:33:11.279Z,23.90
2019-04-21T17:35:40.666Z,25.20
2019-04-21T17:38:12.109Z,25.70
2019-04-21T17:40:42.474Z,25.50
2019-04-21T17:43:15.896Z,26.20
2019-04-21T17:45:44.942Z,26.80
2019-04-21T17:48:17.713Z,25.90
2019-04-21T17:51:07.479Z,25.60
2019-04-21T17:53:49.382Z,26.70
2019-04-21T17:56:41.263Z,27.80
2019-04-21T17:59:09.619Z,28.10
2019-04-21T18:01:45.700Z,28.50
2019-04-21T18:04:15.424Z,28.30
2019-04-21T18:06:52.699Z,28.30
2019-04-21T18:09:36.472Z,28.90
2019-04-21T18:12:06.818Z,29.20
2019-04-21T18:14:15.938Z,30.00
2019-04-21T18:16:49.707Z,31.20
2019-04-21T18:19:26.010Z,31.40
2019-04-21T18:22:12.973Z,32.80
2019-04-21T18:24:52.773Z,32.90
2019-04-21T18:27:17.623Z,33.70
2019-04-21T18:29:48.577Z,34.60
2019-04-21T18:32:27.607Z,35.20
2019-04-21T18:35:30.210Z,35.40
2019-04-21T18:38:28.091Z,36.20
2019-04-21T18:40:54.747Z,37.50
2019-04-21T18:43:55.590Z,38.70
2019-04-21T18:46:31.534Z,39.70
2019-04-21T18:48:54.070Z,40.10
2019-04-21T18:51:55.200Z,41.10
2019-04-21T18:54:41.484Z,42.00
2019-04-21T18:57:10.187Z,43.00
2019-04-21T18:59:34.542Z,44.10
2019-04-21T19:02:06.359Z,44.90
2019-04-21T19:04:35.233Z,46.40
2019-04-21T19:07:18.011Z,47.30
2019-04-21T19:12:43.530Z,49.50
2019-04-21T19:14:54.946Z,51.20
2019-04-21T19:20:20.591Z,52.30
2019-04-21T19:22:37.790Z,52.30
2019-04-21T19:25:04.814Z,53.10
2019-04-21T19:27:36.409Z,53.70
2019-04-21T19:32:38.916Z,55.50
2019-04-21T19:35:01.314Z,57.10
2019-04-21T19:37:38.953Z,58.70
2019-04-21T19:40:10.601Z,60.20
2019-04-21T19:42:42.616Z,61.90
2019-04-21T19:45:17.656Z,63.00
2019-04-21T19:47:55.559Z,63.30
2019-04-21T19:50:31.991Z,64.30
2019-04-21T19:52:52.236Z,65.50
2019-04-21T19:55:16.086Z,65.70
2019-04-21T19:57:47.087Z,67.20
2019-04-21T20:00:19.188Z,68.80
2019-04-21T20:02:50.433Z,69.50
2019-04-21T20:05:32.707Z,72.10
2019-04-21T20:08:08.361Z,72.30
2019-04-21T20:10:44.521Z,73.70
2019-04-21T20:13:25.953Z,75.70
2019-04-21T20:15:52.397Z,76.40
2019-04-21T20:18:11.314Z,79.50
2019-04-21T20:20:33.534Z,80.50
2019-04-21T20:23:08.767Z,83.30
2019-04-21T20:25:43.712Z,85.50
2019-04-21T20:28:16.037Z,88.90
2019-04-21T20:30:59.551Z,90.50
2019-04-21T20:36:03.345Z,91.40
2019-04-21T20:38:29.883Z,91.00
2019-04-21T20:40:59.235Z,92.10
2019-04-21T20:43:51.356Z,92.70
2019-04-21T20:46:07.866Z,92.60
2019-04-21T20:48:40.148Z,94.50
2019-04-21T20:51:11.249Z,92.80
2019-04-21T20:53:45.293Z,93.00
2019-04-21T20:56:11.509Z,94.60
2019-04-21T20:58:53.767Z,94.90
2019-04-21T21:01:33.197Z,96.40
2019-04-21T21:03:54.072Z,96.30
2019-04-21T21:06:30.346Z,97.60
2019-04-21T21:08:56.913Z,98.30
2019-04-21T21:11:29.409Z,99.60
2019-04-21T21:14:07.451Z,99.90
2019-04-21T21:16:41.641Z,99.90
2019-04-21T21:21:34.497Z,99.90
2019-04-21T21:24:08.608Z,99.90
2019-04-21T21:26:47.201Z,99.90
2019-04-21T21:29:11.611Z,99.90
2019-04-21T21:31:50.616Z,99.90
2019-04-21T21:34:23.126Z,99.90
2019-04-21T21:36:50.664Z,99.90
2019-04-21T21:39:25.010Z,99.90
2019-04-21T21:41:45.175Z,99.90
2019-04-21T21:44:17.848Z,99.90
2019-04-21T21:46:58.891Z,99.90
2019-04-21T21:49:37.127Z,99.90
2019-04-21T21:52:00.335Z,99.90
2019-04-21T21:54:20.158Z,99.90
2019-04-21T21:56:50.600Z,99.90
2019-04-21T21:59:25.725Z,99.90
2019-04-21T22:01:55.837Z,99.90
2019-04-21T22:07:07.220Z,99.90
2019-04-21T22:09:36.411Z,99.90
2019-04-21T22:12:09.131Z,99.90
2019-04-21T22:14:44.842Z,99.90
2019-04-21T22:17:30.408Z,99.90
2019-04-21T22:20:03.803Z,99.90
2019-04-21T22:22:29.572Z,99.90
2019-04-21T22:24:59.017Z,99.90
2019-04-21T22:27:19.070Z,99.90
2019-04-21T22:29:53.509Z,99.90
2019-04-21T22:32:27.081Z,99.90
2019-04-21T22:34:58.336Z,99.90
2019-04-21T22:37:39.208Z,99.90
2019-04-21T22:40:12.411Z,99.90
2019-04-21T22:42:34.751Z,99.90
2019-04-21T22:45:02.640Z,99.90
2019-04-21T22:47:36.438Z,99.90
2019-04-21T22:50:06.394Z,99.90
2019-04-21T22:52:37.511Z,99.90
2019-04-21T22:55:14.987Z,99.90
2019-04-21T22:57:47.455Z,99.90
2019-04-21T23:00:16.412Z,99.90
2019-04-21T23:02:47.103Z,99.90
2019-04-21T23:05:22.314Z,99.90
2019-04-21T23:07:56.267Z,99.90
2019-04-21T23:10:23.261Z,99.90
2019-04-21T23:12:57.559Z,99.90
2019-04-21T23:15:36.869Z,99.90
2019-04-21T23:18:11.975Z,99.90
2019-04-21T23:20:51.695Z,99.90
2019-04-21T23:23:22.111Z,99.90
2019-04-21T23:25:45.957Z,99.90
2019-04-21T23:28:20.994Z,99.90
2019-04-21T23:31:02.201Z,99.90
2019-04-21T23:33:12.824Z,99.90
2019-04-21T23:35:45.710Z,99.90
2019-04-21T23:38:14.739Z,99.90
2019-04-21T23:40:53.923Z,99.90
2019-04-21T23:43:24.144Z,99.90
2019-04-21T23:45:50.634Z,99.90
2019-04-21T23:48:33.664Z,99.90
2019-04-21T23:51:07.683Z,99.90
2019-04-21T23:53:26.550Z,99.90
2019-04-21T23:55:57.020Z,99.90
2019-04-21T23:58:31.276Z,99.90
